sensor_id;sensor_type;location;lat;lon;timestamp;temperature;humidity
30534;DHT22;17318;52.390;9.754;2023-06-26T00:00:18;23.00;99.30
30534;DHT22;17318;52.390;9.754;2023-06-26T00:02:44;23.00;99.60
30534;DHT22;17318;52.390;9.754;2023-06-26T00:05:10;23.00;99.50
30534;DHT22;17318;52.390;9.754;2023-06-26T00:07:36;22.90;99.80
30534;DHT22;17318;52.390;9.754;2023-06-26T00:10:03;22.90;99.90
30534;DHT22;17318;52.390;9.754;2023-06-26T00:12:29;22.80;99.90
30534;DHT22;17318;52.390;9.754;2023-06-26T00:14:55;22.80;99.80
30534;DHT22;17318;52.390;9.754;2023-06-26T00:17:21;22.80;99.90
30534;DHT22;17318;52.390;9.754;2023-06-26T00:19:47;22.80;99.90
30534;DHT22;17318;52.390;9.754;2023-06-26T00:22:13;22.70;99.90
30534;DHT22;17318;52.390;9.754;2023-06-26T00:24:39;22.70;99.90
30534;DHT22;17318;52.390;9.754;2023-06-26T00:27:05;22.70;99.90
30534;DHT22;17318;52.390;9.754;2023-06-26T00:29:30;22.60;99.90
30534;DHT22;17318;52.390;9.754;2023-06-26T00:31:56;22.60;99.90
30534;DHT22;17318;52.390;9.754;2023-06-26T00:34:22;22.70;99.90
30534;DHT22;17318;52.390;9.754;2023-06-26T00:36:47;22.70;99.90
30534;DHT22;17318;52.390;9.754;2023-06-26T00:39:13;22.60;99.90
30534;DHT22;17318;52.390;9.754;2023-06-26T00:41:39;22.60;99.90
30534;DHT22;17318;52.390;9.754;2023-06-26T00:44:05;22.50;99.90
30534;DHT22;17318;52.390;9.754;2023-06-26T00:46:31;22.60;99.90
30534;DHT22;17318;52.390;9.754;2023-06-26T00:49:02;22.50;99.90
30534;DHT22;17318;52.390;9.754;2023-06-26T00:51:29;22.50;99.90
30534;DHT22;17318;52.390;9.754;2023-06-26T00:53:55;22.50;99.90
30534;DHT22;17318;52.390;9.754;2023-06-26T00:56:21;22.50;99.90
30534;DHT22;17318;52.390;9.754;2023-06-26T00:58:47;22.40;99.90
30534;DHT22;17318;52.390;9.754;2023-06-26T01:01:13;22.40;99.90
30534;DHT22;17318;52.390;9.754;2023-06-26T01:03:49;22.40;99.90
30534;DHT22;17318;52.390;9.754;2023-06-26T01:06:21;22.40;99.90
30534;DHT22;17318;52.390;9.754;2023-06-26T01:08:47;22.40;99.90
30534;DHT22;17318;52.390;9.754;2023-06-26T01:11:14;22.40;99.90
30534;DHT22;17318;52.390;9.754;2023-06-26T01:13:42;22.40;99.90
30534;DHT22;17318;52.390;9.754;2023-06-26T01:16:10;22.30;99.90
30534;DHT22;17318;52.390;9.754;2023-06-26T01:18:38;22.40;99.90
30534;DHT22;17318;52.390;9.754;2023-06-26T01:21:08;22.30;99.90
30534;DHT22;17318;52.390;9.754;2023-06-26T01:23:55;22.30;99.90
30534;DHT22;17318;52.390;9.754;2023-06-26T01:26:23;22.30;99.90
30534;DHT22;17318;52.390;9.754;2023-06-26T01:28:53;22.20;99.70
30534;DHT22;17318;52.390;9.754;2023-06-26T01:31:19;22.20;99.60
30534;DHT22;17318;52.390;9.754;2023-06-26T01:33:45;22.20;99.40
30534;DHT22;17318;52.390;9.754;2023-06-26T01:36:11;22.20;99.60
30534;DHT22;17318;52.390;9.754;2023-06-26T01:38:37;22.20;99.30
30534;DHT22;17318;52.390;9.754;2023-06-26T01:41:04;22.20;99.30
30534;DHT22;17318;52.390;9.754;2023-06-26T01:46:59;22.20;99.10
30534;DHT22;17318;52.390;9.754;2023-06-26T01:49:56;22.20;99.10
30534;DHT22;17318;52.390;9.754;2023-06-26T01:52:40;22.20;98.90
30534;DHT22;17318;52.390;9.754;2023-06-26T01:57:47;22.10;99.00
30534;DHT22;17318;52.390;9.754;2023-06-26T02:00:14;22.10;98.90
30534;DHT22;17318;52.390;9.754;2023-06-26T02:02:43;22.10;98.80
30534;DHT22;17318;52.390;9.754;2023-06-26T02:05:09;22.10;98.80
30534;DHT22;17318;52.390;9.754;2023-06-26T02:07:34;22.10;98.80
30534;DHT22;17318;52.390;9.754;2023-06-26T02:10:00;22.10;98.60
30534;DHT22;17318;52.390;9.754;2023-06-26T02:12:26;22.10;98.70
30534;DHT22;17318;52.390;9.754;2023-06-26T02:14:51;22.00;98.80
30534;DHT22;17318;52.390;9.754;2023-06-26T02:17:17;22.10;98.90
30534;DHT22;17318;52.390;9.754;2023-06-26T02:19:43;22.00;98.80
30534;DHT22;17318;52.390;9.754;2023-06-26T02:22:16;22.00;98.50
30534;DHT22;17318;52.390;9.754;2023-06-26T02:24:42;22.00;98.60
30534;DHT22;17318;52.390;9.754;2023-06-26T02:27:09;22.00;98.30
30534;DHT22;17318;52.390;9.754;2023-06-26T02:29:35;22.00;98.50
30534;DHT22;17318;52.390;9.754;2023-06-26T02:32:00;22.00;98.40
30534;DHT22;17318;52.390;9.754;2023-06-26T02:34:26;22.00;98.30
30534;DHT22;17318;52.390;9.754;2023-06-26T02:36:52;22.00;98.40
30534;DHT22;17318;52.390;9.754;2023-06-26T02:39:21;22.00;98.50
30534;DHT22;17318;52.390;9.754;2023-06-26T02:41:46;21.90;98.20
30534;DHT22;17318;52.390;9.754;2023-06-26T02:44:12;22.00;98.50
30534;DHT22;17318;52.390;9.754;2023-06-26T02:46:39;22.00;98.50
30534;DHT22;17318;52.390;9.754;2023-06-26T02:49:06;22.00;98.50
30534;DHT22;17318;52.390;9.754;2023-06-26T02:51:33;21.90;98.30
30534;DHT22;17318;52.390;9.754;2023-06-26T02:53:59;21.90;98.30
30534;DHT22;17318;52.390;9.754;2023-06-26T02:56:24;21.80;98.10
30534;DHT22;17318;52.390;9.754;2023-06-26T02:58:54;21.80;98.10
30534;DHT22;17318;52.390;9.754;2023-06-26T03:01:20;21.90;98.10
30534;DHT22;17318;52.390;9.754;2023-06-26T03:03:46;21.90;98.10
30534;DHT22;17318;52.390;9.754;2023-06-26T03:06:12;21.90;98.10
30534;DHT22;17318;52.390;9.754;2023-06-26T03:08:39;21.90;98.00
30534;DHT22;17318;52.390;9.754;2023-06-26T03:11:06;21.90;98.00
30534;DHT22;17318;52.390;9.754;2023-06-26T03:13:32;21.90;98.00
30534;DHT22;17318;52.390;9.754;2023-06-26T03:15:58;21.90;98.00
30534;DHT22;17318;52.390;9.754;2023-06-26T03:18:24;21.90;97.90
30534;DHT22;17318;52.390;9.754;2023-06-26T03:20:49;21.90;97.90
30534;DHT22;17318;52.390;9.754;2023-06-26T03:23:15;21.90;97.80
30534;DHT22;17318;52.390;9.754;2023-06-26T03:25:41;21.80;97.90
30534;DHT22;17318;52.390;9.754;2023-06-26T03:28:06;21.90;97.90
30534;DHT22;17318;52.390;9.754;2023-06-26T03:30:32;21.90;97.90
30534;DHT22;17318;52.390;9.754;2023-06-26T03:32:57;21.90;97.90
30534;DHT22;17318;52.390;9.754;2023-06-26T03:35:23;21.90;97.90
30534;DHT22;17318;52.390;9.754;2023-06-26T03:37:49;21.90;97.90
30534;DHT22;17318;52.390;9.754;2023-06-26T03:40:15;21.90;97.90
30534;DHT22;17318;52.390;9.754;2023-06-26T03:42:42;21.80;97.90
30534;DHT22;17318;52.390;9.754;2023-06-26T03:45:07;21.80;97.90
30534;DHT22;17318;52.390;9.754;2023-06-26T03:47:33;21.90;97.90
30534;DHT22;17318;52.390;9.754;2023-06-26T03:49:59;21.80;97.80
30534;DHT22;17318;52.390;9.754;2023-06-26T03:52:25;21.90;97.90
30534;DHT22;17318;52.390;9.754;2023-06-26T03:54:50;21.80;97.80
30534;DHT22;17318;52.390;9.754;2023-06-26T03:57:16;21.90;97.70
30534;DHT22;17318;52.390;9.754;2023-06-26T03:59:42;21.90;97.90
30534;DHT22;17318;52.390;9.754;2023-06-26T04:02:07;21.80;97.80
30534;DHT22;17318;52.390;9.754;2023-06-26T04:04:33;21.90;97.80
30534;DHT22;17318;52.390;9.754;2023-06-26T04:06:58;21.90;97.80
30534;DHT22;17318;52.390;9.754;2023-06-26T04:09:25;21.90;97.80
30534;DHT22;17318;52.390;9.754;2023-06-26T04:11:51;21.90;97.70
30534;DHT22;17318;52.390;9.754;2023-06-26T04:14:16;21.90;97.70
30534;DHT22;17318;52.390;9.754;2023-06-26T04:16:43;21.90;97.70
30534;DHT22;17318;52.390;9.754;2023-06-26T04:19:08;21.90;97.70
30534;DHT22;17318;52.390;9.754;2023-06-26T04:21:35;21.90;97.60
30534;DHT22;17318;52.390;9.754;2023-06-26T04:24:01;22.00;97.70
30534;DHT22;17318;52.390;9.754;2023-06-26T04:26:27;22.00;97.70
30534;DHT22;17318;52.390;9.754;2023-06-26T04:28:54;22.00;97.50
30534;DHT22;17318;52.390;9.754;2023-06-26T04:31:19;22.10;97.60
30534;DHT22;17318;52.390;9.754;2023-06-26T04:33:45;22.10;97.50
30534;DHT22;17318;52.390;9.754;2023-06-26T04:36:16;22.10;97.60
30534;DHT22;17318;52.390;9.754;2023-06-26T04:38:42;22.10;97.60
30534;DHT22;17318;52.390;9.754;2023-06-26T04:41:08;22.10;97.40
30534;DHT22;17318;52.390;9.754;2023-06-26T04:43:34;22.20;97.50
30534;DHT22;17318;52.390;9.754;2023-06-26T04:45:59;22.20;97.40
30534;DHT22;17318;52.390;9.754;2023-06-26T04:48:25;22.30;97.40
30534;DHT22;17318;52.390;9.754;2023-06-26T04:50:53;22.30;97.40
30534;DHT22;17318;52.390;9.754;2023-06-26T04:53:22;22.40;97.40
30534;DHT22;17318;52.390;9.754;2023-06-26T04:55:52;22.40;97.40
30534;DHT22;17318;52.390;9.754;2023-06-26T04:58:19;22.40;97.40
30534;DHT22;17318;52.390;9.754;2023-06-26T05:00:45;22.40;97.50
30534;DHT22;17318;52.390;9.754;2023-06-26T05:03:14;22.50;97.40
30534;DHT22;17318;52.390;9.754;2023-06-26T05:05:40;22.50;97.40
30534;DHT22;17318;52.390;9.754;2023-06-26T05:08:22;22.50;97.50
30534;DHT22;17318;52.390;9.754;2023-06-26T05:10:48;22.50;97.40
30534;DHT22;17318;52.390;9.754;2023-06-26T05:13:14;22.60;97.50
30534;DHT22;17318;52.390;9.754;2023-06-26T05:15:48;22.60;97.40
30534;DHT22;17318;52.390;9.754;2023-06-26T05:18:14;22.60;97.40
30534;DHT22;17318;52.390;9.754;2023-06-26T05:20:40;22.70;97.50
30534;DHT22;17318;52.390;9.754;2023-06-26T05:23:06;22.70;97.50
30534;DHT22;17318;52.390;9.754;2023-06-26T05:25:33;22.80;97.40
30534;DHT22;17318;52.390;9.754;2023-06-26T05:28:02;22.80;97.40
30534;DHT22;17318;52.390;9.754;2023-06-26T05:30:31;22.80;97.30
30534;DHT22;17318;52.390;9.754;2023-06-26T05:32:59;22.90;97.20
30534;DHT22;17318;52.390;9.754;2023-06-26T05:35:28;22.90;97.10
30534;DHT22;17318;52.390;9.754;2023-06-26T05:37:56;22.90;97.10
30534;DHT22;17318;52.390;9.754;2023-06-26T05:40:22;23.10;97.20
30534;DHT22;17318;52.390;9.754;2023-06-26T05:42:48;23.10;97.10
30534;DHT22;17318;52.390;9.754;2023-06-26T05:45:15;23.20;97.00
30534;DHT22;17318;52.390;9.754;2023-06-26T05:47:41;23.30;97.00
30534;DHT22;17318;52.390;9.754;2023-06-26T05:50:08;23.40;96.70
30534;DHT22;17318;52.390;9.754;2023-06-26T05:52:35;23.50;96.40
30534;DHT22;17318;52.390;9.754;2023-06-26T05:55:01;23.60;96.10
30534;DHT22;17318;52.390;9.754;2023-06-26T05:57:29;23.70;96.10
30534;DHT22;17318;52.390;9.754;2023-06-26T05:59:55;23.70;95.80
30534;DHT22;17318;52.390;9.754;2023-06-26T06:02:21;23.80;95.70
30534;DHT22;17318;52.390;9.754;2023-06-26T06:04:47;23.80;95.60
30534;DHT22;17318;52.390;9.754;2023-06-26T06:07:13;23.80;95.60
30534;DHT22;17318;52.390;9.754;2023-06-26T06:09:39;23.90;95.60
30534;DHT22;17318;52.390;9.754;2023-06-26T06:12:06;23.90;95.60
30534;DHT22;17318;52.390;9.754;2023-06-26T06:14:32;24.00;95.70
30534;DHT22;17318;52.390;9.754;2023-06-26T06:16:58;24.00;95.30
30534;DHT22;17318;52.390;9.754;2023-06-26T06:19:24;24.00;95.40
30534;DHT22;17318;52.390;9.754;2023-06-26T06:21:49;23.90;95.30
30534;DHT22;17318;52.390;9.754;2023-06-26T06:24:15;23.90;95.50
30534;DHT22;17318;52.390;9.754;2023-06-26T06:26:41;24.00;95.60
30534;DHT22;17318;52.390;9.754;2023-06-26T06:29:06;24.00;95.50
30534;DHT22;17318;52.390;9.754;2023-06-26T06:31:32;24.10;95.60
30534;DHT22;17318;52.390;9.754;2023-06-26T06:33:58;24.20;95.50
30534;DHT22;17318;52.390;9.754;2023-06-26T06:36:23;24.20;95.40
30534;DHT22;17318;52.390;9.754;2023-06-26T06:38:49;24.40;95.40
30534;DHT22;17318;52.390;9.754;2023-06-26T06:41:15;24.40;95.30
30534;DHT22;17318;52.390;9.754;2023-06-26T06:43:42;24.50;95.20
30534;DHT22;17318;52.390;9.754;2023-06-26T06:46:08;24.60;95.00
30534;DHT22;17318;52.390;9.754;2023-06-26T06:48:34;24.70;95.20
30534;DHT22;17318;52.390;9.754;2023-06-26T06:51:00;24.70;94.90
30534;DHT22;17318;52.390;9.754;2023-06-26T06:53:25;24.60;95.40
30534;DHT22;17318;52.390;9.754;2023-06-26T06:55:51;24.60;95.00
30534;DHT22;17318;52.390;9.754;2023-06-26T06:58:17;24.60;95.00
30534;DHT22;17318;52.390;9.754;2023-06-26T07:00:44;24.70;95.10
30534;DHT22;17318;52.390;9.754;2023-06-26T07:03:10;24.80;95.20
30534;DHT22;17318;52.390;9.754;2023-06-26T07:05:36;24.90;95.10
30534;DHT22;17318;52.390;9.754;2023-06-26T07:08:02;25.00;94.90
30534;DHT22;17318;52.390;9.754;2023-06-26T07:10:29;25.10;94.70
30534;DHT22;17318;52.390;9.754;2023-06-26T07:12:54;25.20;94.60
30534;DHT22;17318;52.390;9.754;2023-06-26T07:15:20;25.40;94.30
30534;DHT22;17318;52.390;9.754;2023-06-26T07:17:46;25.70;94.40
30534;DHT22;17318;52.390;9.754;2023-06-26T07:20:11;25.90;93.80
30534;DHT22;17318;52.390;9.754;2023-06-26T07:22:41;26.00;94.00
30534;DHT22;17318;52.390;9.754;2023-06-26T07:25:07;26.10;93.10
30534;DHT22;17318;52.390;9.754;2023-06-26T07:27:36;26.10;91.90
30534;DHT22;17318;52.390;9.754;2023-06-26T07:30:02;26.20;92.10
30534;DHT22;17318;52.390;9.754;2023-06-26T07:32:28;26.20;91.60
30534;DHT22;17318;52.390;9.754;2023-06-26T07:34:54;26.30;91.60
30534;DHT22;17318;52.390;9.754;2023-06-26T07:37:19;26.30;91.50
30534;DHT22;17318;52.390;9.754;2023-06-26T07:39:45;26.30;90.90
30534;DHT22;17318;52.390;9.754;2023-06-26T07:42:11;26.40;91.20
30534;DHT22;17318;52.390;9.754;2023-06-26T07:44:36;26.50;90.80
30534;DHT22;17318;52.390;9.754;2023-06-26T07:47:02;26.60;90.70
30534;DHT22;17318;52.390;9.754;2023-06-26T07:49:29;26.70;90.30
30534;DHT22;17318;52.390;9.754;2023-06-26T07:51:54;26.80;90.50
30534;DHT22;17318;52.390;9.754;2023-06-26T07:54:20;26.90;90.20
30534;DHT22;17318;52.390;9.754;2023-06-26T07:59:25;27.20;89.30
30534;DHT22;17318;52.390;9.754;2023-06-26T08:01:51;27.30;88.40
30534;DHT22;17318;52.390;9.754;2023-06-26T08:04:19;27.30;87.90
30534;DHT22;17318;52.390;9.754;2023-06-26T08:06:47;27.60;88.50
30534;DHT22;17318;52.390;9.754;2023-06-26T08:09:13;27.70;87.00
30534;DHT22;17318;52.390;9.754;2023-06-26T08:11:38;27.80;86.70
30534;DHT22;17318;52.390;9.754;2023-06-26T08:14:04;27.80;86.60
30534;DHT22;17318;52.390;9.754;2023-06-26T08:16:30;27.80;86.30
30534;DHT22;17318;52.390;9.754;2023-06-26T08:18:55;27.90;86.60
30534;DHT22;17318;52.390;9.754;2023-06-26T08:21:21;28.10;85.90
30534;DHT22;17318;52.390;9.754;2023-06-26T08:23:47;28.30;85.70
30534;DHT22;17318;52.390;9.754;2023-06-26T08:26:13;28.40;85.70
30534;DHT22;17318;52.390;9.754;2023-06-26T08:28:39;28.50;85.90
30534;DHT22;17318;52.390;9.754;2023-06-26T08:31:05;28.70;84.80
30534;DHT22;17318;52.390;9.754;2023-06-26T08:33:30;29.10;83.40
30534;DHT22;17318;52.390;9.754;2023-06-26T08:35:56;29.40;82.00
30534;DHT22;17318;52.390;9.754;2023-06-26T08:38:22;29.70;81.10
30534;DHT22;17318;52.390;9.754;2023-06-26T08:40:48;30.50;80.00
30534;DHT22;17318;52.390;9.754;2023-06-26T08:43:13;31.20;78.40
30534;DHT22;17318;52.390;9.754;2023-06-26T08:45:39;32.10;79.40
30534;DHT22;17318;52.390;9.754;2023-06-26T08:48:07;32.80;76.80
30534;DHT22;17318;52.390;9.754;2023-06-26T08:50:35;33.30;73.10
30534;DHT22;17318;52.390;9.754;2023-06-26T08:53:27;32.80;72.40
30534;DHT22;17318;52.390;9.754;2023-06-26T08:55:57;32.70;72.00
30534;DHT22;17318;52.390;9.754;2023-06-26T08:58:23;32.60;73.50
30534;DHT22;17318;52.390;9.754;2023-06-26T09:00:49;32.90;73.10
30534;DHT22;17318;52.390;9.754;2023-06-26T09:03:15;33.00;72.10
30534;DHT22;17318;52.390;9.754;2023-06-26T09:05:41;33.10;71.60
30534;DHT22;17318;52.390;9.754;2023-06-26T09:08:07;32.10;73.10
30534;DHT22;17318;52.390;9.754;2023-06-26T09:10:33;31.70;73.90
30534;DHT22;17318;52.390;9.754;2023-06-26T09:12:59;32.10;74.40
30534;DHT22;17318;52.390;9.754;2023-06-26T09:15:27;32.50;73.50
30534;DHT22;17318;52.390;9.754;2023-06-26T09:17:57;31.90;73.30
30534;DHT22;17318;52.390;9.754;2023-06-26T09:20:27;31.30;73.70
30534;DHT22;17318;52.390;9.754;2023-06-26T09:22:53;31.20;74.50
30534;DHT22;17318;52.390;9.754;2023-06-26T09:25:19;31.50;74.80
30534;DHT22;17318;52.390;9.754;2023-06-26T09:27:48;30.80;74.50
30534;DHT22;17318;52.390;9.754;2023-06-26T09:30:17;31.20;74.60
30534;DHT22;17318;52.390;9.754;2023-06-26T09:32:43;30.70;75.60
30534;DHT22;17318;52.390;9.754;2023-06-26T09:35:10;30.50;76.00
30534;DHT22;17318;52.390;9.754;2023-06-26T09:37:36;30.00;77.50
30534;DHT22;17318;52.390;9.754;2023-06-26T09:40:02;30.00;78.10
30534;DHT22;17318;52.390;9.754;2023-06-26T09:42:29;29.90;78.70
30534;DHT22;17318;52.390;9.754;2023-06-26T09:44:55;30.10;78.80
30534;DHT22;17318;52.390;9.754;2023-06-26T09:47:21;29.90;78.70
30534;DHT22;17318;52.390;9.754;2023-06-26T09:49:47;29.50;79.90
30534;DHT22;17318;52.390;9.754;2023-06-26T09:52:17;29.50;80.50
30534;DHT22;17318;52.390;9.754;2023-06-26T09:54:43;29.00;81.90
30534;DHT22;17318;52.390;9.754;2023-06-26T09:57:13;28.80;83.20
30534;DHT22;17318;52.390;9.754;2023-06-26T09:59:40;28.90;83.10
30534;DHT22;17318;52.390;9.754;2023-06-26T10:02:06;28.70;83.30
30534;DHT22;17318;52.390;9.754;2023-06-26T10:04:33;28.50;84.10
30534;DHT22;17318;52.390;9.754;2023-06-26T10:07:01;28.10;84.60
30534;DHT22;17318;52.390;9.754;2023-06-26T10:09:29;28.30;85.00
30534;DHT22;17318;52.390;9.754;2023-06-26T10:12:06;28.20;85.70
30534;DHT22;17318;52.390;9.754;2023-06-26T10:14:37;28.00;86.30
30534;DHT22;17318;52.390;9.754;2023-06-26T10:17:10;28.00;86.80
30534;DHT22;17318;52.390;9.754;2023-06-26T10:19:38;27.60;88.30
30534;DHT22;17318;52.390;9.754;2023-06-26T10:22:05;27.60;88.90
30534;DHT22;17318;52.390;9.754;2023-06-26T10:24:33;27.30;89.70
30534;DHT22;17318;52.390;9.754;2023-06-26T10:27:19;27.00;90.60
30534;DHT22;17318;52.390;9.754;2023-06-26T10:29:48;26.90;90.40
30534;DHT22;17318;52.390;9.754;2023-06-26T10:32:15;26.60;90.30
30534;DHT22;17318;52.390;9.754;2023-06-26T10:34:43;26.30;90.30
30534;DHT22;17318;52.390;9.754;2023-06-26T10:37:09;26.20;90.50
30534;DHT22;17318;52.390;9.754;2023-06-26T10:39:51;25.60;93.20
30534;DHT22;17318;52.390;9.754;2023-06-26T10:42:28;25.40;95.60
30534;DHT22;17318;52.390;9.754;2023-06-26T10:45:09;25.40;97.00
30534;DHT22;17318;52.390;9.754;2023-06-26T10:47:36;25.40;97.40
30534;DHT22;17318;52.390;9.754;2023-06-26T10:56:05;25.20;97.80
30534;DHT22;17318;52.390;9.754;2023-06-26T11:03:44;25.30;98.30
30534;DHT22;17318;52.390;9.754;2023-06-26T11:06:12;25.50;97.90
30534;DHT22;17318;52.390;9.754;2023-06-26T11:08:51;25.30;98.00
30534;DHT22;17318;52.390;9.754;2023-06-26T11:11:19;25.40;97.50
30534;DHT22;17318;52.390;9.754;2023-06-26T11:13:46;25.40;97.30
30534;DHT22;17318;52.390;9.754;2023-06-26T11:16:13;25.40;97.20
30534;DHT22;17318;52.390;9.754;2023-06-26T11:18:41;25.40;97.10
30534;DHT22;17318;52.390;9.754;2023-06-26T11:21:11;25.60;96.40
30534;DHT22;17318;52.390;9.754;2023-06-26T11:23:40;25.30;96.30
30534;DHT22;17318;52.390;9.754;2023-06-26T11:26:17;25.20;96.70
30534;DHT22;17318;52.390;9.754;2023-06-26T11:28:55;25.20;95.90
30534;DHT22;17318;52.390;9.754;2023-06-26T11:31:34;25.20;96.30
30534;DHT22;17318;52.390;9.754;2023-06-26T11:34:01;25.30;96.00
30534;DHT22;17318;52.390;9.754;2023-06-26T11:36:28;25.20;95.90
30534;DHT22;17318;52.390;9.754;2023-06-26T11:38:58;25.30;95.70
30534;DHT22;17318;52.390;9.754;2023-06-26T11:41:29;25.20;95.70
30534;DHT22;17318;52.390;9.754;2023-06-26T11:43:55;25.20;95.90
30534;DHT22;17318;52.390;9.754;2023-06-26T11:46:22;25.30;95.80
30534;DHT22;17318;52.390;9.754;2023-06-26T11:48:49;25.40;95.90
30534;DHT22;17318;52.390;9.754;2023-06-26T11:51:17;25.60;95.80
30534;DHT22;17318;52.390;9.754;2023-06-26T11:53:44;25.80;95.70
30534;DHT22;17318;52.390;9.754;2023-06-26T11:56:19;26.00;95.10
30534;DHT22;17318;52.390;9.754;2023-06-26T11:59:01;26.00;94.90
30534;DHT22;17318;52.390;9.754;2023-06-26T12:01:39;26.00;94.30
30534;DHT22;17318;52.390;9.754;2023-06-26T12:04:09;25.80;93.30
30534;DHT22;17318;52.390;9.754;2023-06-26T12:06:37;25.70;93.40
30534;DHT22;17318;52.390;9.754;2023-06-26T12:09:06;25.80;92.70
30534;DHT22;17318;52.390;9.754;2023-06-26T12:11:34;25.80;92.50
30534;DHT22;17318;52.390;9.754;2023-06-26T12:14:01;25.70;91.90
30534;DHT22;17318;52.390;9.754;2023-06-26T12:16:30;25.60;91.00
30534;DHT22;17318;52.390;9.754;2023-06-26T12:19:04;25.50;90.40
30534;DHT22;17318;52.390;9.754;2023-06-26T12:21:45;25.60;90.10
30534;DHT22;17318;52.390;9.754;2023-06-26T12:24:19;25.70;89.70
30534;DHT22;17318;52.390;9.754;2023-06-26T12:26:49;25.90;90.00
30534;DHT22;17318;52.390;9.754;2023-06-26T12:29:17;25.90;89.50
30534;DHT22;17318;52.390;9.754;2023-06-26T12:31:45;26.10;89.90
30534;DHT22;17318;52.390;9.754;2023-06-26T12:34:12;26.10;89.60
30534;DHT22;17318;52.390;9.754;2023-06-26T12:36:44;26.20;89.60
30534;DHT22;17318;52.390;9.754;2023-06-26T12:39:11;26.20;89.40
30534;DHT22;17318;52.390;9.754;2023-06-26T12:44:30;26.30;89.00
30534;DHT22;17318;52.390;9.754;2023-06-26T12:47:02;26.50;89.50
30534;DHT22;17318;52.390;9.754;2023-06-26T12:49:42;26.50;89.20
30534;DHT22;17318;52.390;9.754;2023-06-26T12:52:13;26.70;90.10
30534;DHT22;17318;52.390;9.754;2023-06-26T12:54:40;26.70;88.80
30534;DHT22;17318;52.390;9.754;2023-06-26T12:57:07;26.80;87.90
30534;DHT22;17318;52.390;9.754;2023-06-26T12:59:34;27.00;86.80
30534;DHT22;17318;52.390;9.754;2023-06-26T13:02:00;27.10;85.50
30534;DHT22;17318;52.390;9.754;2023-06-26T13:04:26;27.10;82.50
30534;DHT22;17318;52.390;9.754;2023-06-26T13:06:52;27.00;81.20
30534;DHT22;17318;52.390;9.754;2023-06-26T13:09:20;27.10;82.90
30534;DHT22;17318;52.390;9.754;2023-06-26T13:11:46;27.30;85.70
30534;DHT22;17318;52.390;9.754;2023-06-26T13:14:12;27.00;86.70
30534;DHT22;17318;52.390;9.754;2023-06-26T13:16:38;26.90;86.90
30534;DHT22;17318;52.390;9.754;2023-06-26T13:19:04;27.00;86.40
30534;DHT22;17318;52.390;9.754;2023-06-26T13:21:29;27.00;86.60
30534;DHT22;17318;52.390;9.754;2023-06-26T13:23:55;27.00;85.10
30534;DHT22;17318;52.390;9.754;2023-06-26T13:26:22;27.00;82.30
30534;DHT22;17318;52.390;9.754;2023-06-26T13:28:48;27.00;81.30
30534;DHT22;17318;52.390;9.754;2023-06-26T13:31:14;27.00;80.10
30534;DHT22;17318;52.390;9.754;2023-06-26T13:33:40;27.00;80.10
30534;DHT22;17318;52.390;9.754;2023-06-26T13:36:06;26.90;79.40
30534;DHT22;17318;52.390;9.754;2023-06-26T13:38:35;26.90;78.40
30534;DHT22;17318;52.390;9.754;2023-06-26T13:41:00;26.70;76.60
30534;DHT22;17318;52.390;9.754;2023-06-26T13:43:27;26.70;75.60
30534;DHT22;17318;52.390;9.754;2023-06-26T13:45:53;26.70;74.60
30534;DHT22;17318;52.390;9.754;2023-06-26T13:48:19;26.70;74.90
30534;DHT22;17318;52.390;9.754;2023-06-26T13:50:46;26.70;76.00
30534;DHT22;17318;52.390;9.754;2023-06-26T13:53:12;26.70;76.70
30534;DHT22;17318;52.390;9.754;2023-06-26T13:55:38;26.70;77.50
30534;DHT22;17318;52.390;9.754;2023-06-26T13:58:04;26.90;77.20
30534;DHT22;17318;52.390;9.754;2023-06-26T14:00:32;27.00;77.20
30534;DHT22;17318;52.390;9.754;2023-06-26T14:02:59;27.00;76.20
30534;DHT22;17318;52.390;9.754;2023-06-26T14:05:24;27.00;76.10
30534;DHT22;17318;52.390;9.754;2023-06-26T14:07:50;27.10;75.80
30534;DHT22;17318;52.390;9.754;2023-06-26T14:10:16;27.20;74.50
30534;DHT22;17318;52.390;9.754;2023-06-26T14:12:41;27.10;72.30
30534;DHT22;17318;52.390;9.754;2023-06-26T14:15:08;27.10;71.60
30534;DHT22;17318;52.390;9.754;2023-06-26T14:17:33;27.10;72.00
30534;DHT22;17318;52.390;9.754;2023-06-26T14:19:59;27.10;71.40
30534;DHT22;17318;52.390;9.754;2023-06-26T14:22:25;27.10;71.40
30534;DHT22;17318;52.390;9.754;2023-06-26T14:24:51;27.00;69.50
30534;DHT22;17318;52.390;9.754;2023-06-26T14:27:16;26.90;70.20
30534;DHT22;17318;52.390;9.754;2023-06-26T14:29:42;27.00;70.50
30534;DHT22;17318;52.390;9.754;2023-06-26T14:32:08;27.00;70.40
30534;DHT22;17318;52.390;9.754;2023-06-26T14:34:33;26.90;71.50
30534;DHT22;17318;52.390;9.754;2023-06-26T14:36:59;26.90;72.70
30534;DHT22;17318;52.390;9.754;2023-06-26T14:39:25;26.90;74.20
30534;DHT22;17318;52.390;9.754;2023-06-26T14:41:51;26.80;75.50
30534;DHT22;17318;52.390;9.754;2023-06-26T14:44:16;26.70;76.00
30534;DHT22;17318;52.390;9.754;2023-06-26T14:46:42;26.70;75.70
30534;DHT22;17318;52.390;9.754;2023-06-26T14:49:08;26.70;76.10
30534;DHT22;17318;52.390;9.754;2023-06-26T14:51:34;26.60;75.00
30534;DHT22;17318;52.390;9.754;2023-06-26T14:54:00;26.40;73.50
30534;DHT22;17318;52.390;9.754;2023-06-26T14:56:26;26.50;73.80
30534;DHT22;17318;52.390;9.754;2023-06-26T14:58:52;26.60;74.00
30534;DHT22;17318;52.390;9.754;2023-06-26T15:01:19;26.70;75.00
30534;DHT22;17318;52.390;9.754;2023-06-26T15:03:47;26.60;75.90
30534;DHT22;17318;52.390;9.754;2023-06-26T15:06:13;26.60;77.70
30534;DHT22;17318;52.390;9.754;2023-06-26T15:08:39;26.50;78.10
30534;DHT22;17318;52.390;9.754;2023-06-26T15:11:04;26.60;78.80
30534;DHT22;17318;52.390;9.754;2023-06-26T15:13:30;26.50;78.60
30534;DHT22;17318;52.390;9.754;2023-06-26T15:15:56;26.50;79.30
30534;DHT22;17318;52.390;9.754;2023-06-26T15:18:21;26.30;78.70
30534;DHT22;17318;52.390;9.754;2023-06-26T15:20:47;26.00;78.10
30534;DHT22;17318;52.390;9.754;2023-06-26T15:23:13;26.00;77.50
30534;DHT22;17318;52.390;9.754;2023-06-26T15:25:38;26.00;76.20
30534;DHT22;17318;52.390;9.754;2023-06-26T15:28:05;25.70;74.10
30534;DHT22;17318;52.390;9.754;2023-06-26T15:30:32;25.80;74.30
30534;DHT22;17318;52.390;9.754;2023-06-26T15:32:58;25.70;73.50
30534;DHT22;17318;52.390;9.754;2023-06-26T15:35:24;25.70;73.30
30534;DHT22;17318;52.390;9.754;2023-06-26T15:37:50;25.60;73.40
30534;DHT22;17318;52.390;9.754;2023-06-26T15:40:16;25.70;73.90
30534;DHT22;17318;52.390;9.754;2023-06-26T15:42:49;25.80;73.70
30534;DHT22;17318;52.390;9.754;2023-06-26T15:45:16;25.80;74.00
30534;DHT22;17318;52.390;9.754;2023-06-26T15:47:47;25.90;74.50
30534;DHT22;17318;52.390;9.754;2023-06-26T15:50:13;25.80;74.30
30534;DHT22;17318;52.390;9.754;2023-06-26T15:52:39;25.50;74.60